Time;durP1;ratioP1;P1;durP2;ratioP2;P2;SDS_P1;SDS_P2;PMS_P1;PMS_P2;Temp;Humidity;BMP_temperature;BMP_pressure;BME280_temperature;BME280_humidity;BME280_pressure;Samples;Min_cycle;Max_cycle;Signal;HPM_P1;HPM_P2
2024/02/09 00:01:19;;;;;;;67.40;35.80;;;;;;;-2.13;80.07;99858.39;108925;1254;138541;-60
2024/02/09 00:03:46;;;;;;;56.50;27.80;;;;;;;-2.16;80.04;99857.77;109078;1255;75600;-60
2024/02/09 00:06:13;;;;;;;52.90;28.10;;;;;;;-2.18;80.01;99858.45;109210;1254;64322;-57
2024/02/09 00:08:40;;;;;;;56.70;30.60;;;;;;;-2.24;79.90;99857.73;109021;1256;138332;-59
2024/02/09 00:11:11;;;;;;;55.90;28.20;;;;;;;-2.29;79.77;99859.48;109075;1257;59714;-66
2024/02/09 00:13:42;;;;;;;56.30;26.80;;;;;;;-2.33;79.73;99855.30;109073;1254;140083;-66
2024/02/09 00:16:09;;;;;;;56.60;26.40;;;;;;;-2.37;79.77;99855.41;109188;1257;75487;-67
2024/02/09 00:18:36;;;;;;;58.00;25.00;;;;;;;-2.40;79.70;99861.91;109211;1255;64846;-66
2024/02/09 00:21:03;;;;;;;39.10;21.90;;;;;;;-2.44;79.72;99859.46;108824;1255;139757;-67
2024/02/09 00:23:32;;;;;;;35.40;18.60;;;;;;;-2.45;79.77;99855.93;109214;1257;59784;-67
2024/02/09 00:26:00;;;;;;;34.90;17.80;;;;;;;-2.45;79.93;99856.98;109121;1255;138971;-67
2024/02/09 00:28:30;;;;;;;31.70;16.10;;;;;;;-2.44;80.05;99854.77;109039;1257;76767;-67
2024/02/09 00:30:57;;;;;;;30.10;13.90;;;;;;;-2.45;80.22;99850.80;107570;1257;65355;-67
2024/02/09 00:33:24;;;;;;;29.30;12.90;;;;;;;-2.43;80.32;99847.45;104964;1259;139411;-68
2024/02/09 00:35:50;;;;;;;28.40;12.80;;;;;;;-2.42;80.54;99844.81;105191;1254;62245;-67
2024/02/09 00:38:20;;;;;;;30.30;12.80;;;;;;;-2.42;80.44;99842.23;105059;1255;139392;-67
2024/02/09 00:40:48;;;;;;;25.20;13.10;;;;;;;-2.42;80.57;99844.96;109139;1257;76010;-67
2024/02/09 00:43:17;;;;;;;30.80;14.10;;;;;;;-2.43;80.42;99842.67;108720;1258;139392;-66
2024/02/09 00:45:43;;;;;;;28.60;13.40;;;;;;;-2.43;80.55;99844.54;105069;1257;71116;-67
2024/02/09 00:48:10;;;;;;;32.00;14.20;;;;;;;-2.43;80.41;99843.91;105092;1260;62097;-67
2024/02/09 00:50:37;;;;;;;31.60;14.80;;;;;;;-2.43;80.44;99844.58;105057;1256;138957;-67
2024/02/09 00:53:04;;;;;;;34.30;14.30;;;;;;;-2.44;80.51;99846.03;104809;1260;76839;-68
2024/02/09 00:55:31;;;;;;;30.00;14.20;;;;;;;-2.46;80.42;99851.27;109056;1254;139113;-66
2024/02/09 00:57:58;;;;;;;36.60;14.30;;;;;;;-2.46;80.50;99857.75;109150;1257;72405;-67
2024/02/09 01:00:25;;;;;;;28.30;12.40;;;;;;;-2.46;80.72;99861.72;109172;1254;59982;-67
2024/02/09 01:02:51;;;;;;;23.60;11.40;;;;;;;-2.45;80.73;99859.93;107948;1260;139331;-67
2024/02/09 01:05:18;;;;;;;23.60;11.20;;;;;;;-2.43;80.80;99860.58;105129;1257;75044;-68
2024/02/09 01:07:46;;;;;;;31.10;12.30;;;;;;;-2.42;80.66;99862.29;109078;1254;139389;-66
2024/02/09 01:10:12;;;;;;;25.00;11.90;;;;;;;-2.42;80.69;99858.89;109175;1254;70639;-67
2024/02/09 02:46:13;;;;;;;32.50;15.70;;;;;;;-3.22;81.08;99868.39;104840;1260;70725;-60
2024/02/09 03:05:27;;;;;;;36.70;16.40;;;;;;;-3.32;81.38;99861.60;105008;1260;62081;-67
2024/02/09 03:07:56;;;;;;;30.90;16.30;;;;;;;-3.33;81.38;99858.25;109032;1257;139961;-67
2024/02/09 03:10:23;;;;;;;31.60;16.20;;;;;;;-3.36;81.44;99861.70;108991;1260;66689;-66
2024/02/09 03:12:50;;;;;;;36.20;16.90;;;;;;;-3.36;81.47;99865.24;109007;1254;73874;-66
2024/02/09 03:15:20;;;;;;;33.40;17.00;;;;;;;-3.37;81.34;99870.70;109075;1254;138898;-66
2024/02/09 03:17:51;;;;;;;34.20;17.30;;;;;;;-3.38;81.31;99874.75;109245;1254;60266;-66
2024/02/09 03:20:18;;;;;;;28.30;16.10;;;;;;;-3.38;81.38;99874.25;109116;1254;139006;-66
2024/02/09 03:22:45;;;;;;;42.20;17.00;;;;;;;-3.37;81.32;99874.45;109000;1255;64881;-67
2024/02/09 03:25:11;;;;;;;34.00;17.00;;;;;;;-3.37;81.39;99872.91;108949;1257;72951;-66
2024/02/09 03:27:40;;;;;;;33.70;16.50;;;;;;;-3.37;81.35;99872.60;108872;1254;138848;-66
2024/02/09 03:30:08;;;;;;;32.00;17.30;;;;;;;-3.37;81.34;99874.50;109180;1260;60155;-67
2024/02/09 03:32:36;;;;;;;31.00;16.70;;;;;;;-3.34;81.40;99875.84;108846;1254;139561;-67
2024/02/09 03:35:04;;;;;;;34.80;16.70;;;;;;;-3.32;81.52;99876.02;108133;1254;65958;-66
2024/02/09 03:37:33;;;;;;;34.70;18.10;;;;;;;-3.32;81.38;99876.67;108844;1255;140261;-66
2024/02/09 03:40:00;;;;;;;29.30;16.20;;;;;;;-3.31;81.36;99878.80;109192;1254;60023;-66
2024/02/09 03:42:28;;;;;;;32.30;16.60;;;;;;;-3.30;81.39;99876.44;109169;1258;61020;-67
2024/02/09 03:44:55;;;;;;;29.00;16.00;;;;;;;-3.28;81.44;99873.16;109132;1254;139219;-66
2024/02/09 03:47:30;;;;;;;35.10;17.70;;;;;;;-3.26;81.36;99881.00;109165;1254;65068;-67
2024/02/09 03:49:57;;;;;;;32.80;14.90;;;;;;;-3.27;81.26;99882.69;109056;1254;139226;-59
2024/02/09 03:52:24;;;;;;;30.90;16.10;;;;;;;-3.30;81.15;99881.60;109160;1260;60153;-67
2024/02/09 03:54:52;;;;;;;31.10;15.30;;;;;;;-3.31;81.19;99879.64;105853;1260;62025;-67
2024/02/09 03:57:24;;;;;;;32.90;16.10;;;;;;;-3.32;81.19;99881.34;109016;1254;139422;-60
2024/02/09 03:59:51;;;;;;;29.50;15.40;;;;;;;-3.31;81.28;99879.67;109225;1254;64282;-67
2024/02/09 04:02:18;;;;;;;30.50;15.40;;;;;;;-3.29;81.22;99875.14;106556;1255;138936;-67
2024/02/09 04:04:48;;;;;;;36.00;15.20;;;;;;;-3.30;81.11;99866.53;109194;1254;59822;-67
2024/02/09 04:07:17;;;;;;;31.30;14.70;;;;;;;-3.30;81.21;99859.45;108848;1254;59838;-67
2024/02/09 04:09:44;;;;;;;30.10;15.60;;;;;;;-3.29;81.25;99852.31;108999;1254;74740;-67
2024/02/09 04:12:11;;;;;;;33.40;15.10;;;;;;;-3.30;81.29;99847.29;109242;1254;67174;-66
2024/02/09 04:14:38;;;;;;;29.50;15.00;;;;;;;-3.29;81.43;99845.61;109117;1254;138269;-60
2024/02/09 04:17:06;;;;;;;30.10;15.80;;;;;;;-3.27;81.57;99843.35;109177;1254;59812;-58
2024/02/09 04:19:34;;;;;;;31.20;15.80;;;;;;;-3.26;81.49;99843.76;105390;1258;139037;-61
2024/02/09 04:22:01;;;;;;;31.80;16.30;;;;;;;-3.27;81.49;99846.48;104984;1260;76077;-60
2024/02/09 04:24:27;;;;;;;30.30;14.90;;;;;;;-3.26;81.56;99846.71;107056;1254;66662;-58
2024/02/09 04:26:54;;;;;;;32.20;13.70;;;;;;;-3.24;81.60;99845.61;104991;1260;140334;-59
2024/02/09 04:29:22;;;;;;;29.10;14.80;;;;;;;-3.22;81.64;99849.66;105023;1259;62288;-59
2024/02/09 04:31:49;;;;;;;31.00;14.10;;;;;;;-3.21;81.67;99852.17;105012;1260;139280;-60
2024/02/09 04:34:16;;;;;;;33.00;14.30;;;;;;;-3.18;81.78;99856.30;105122;1254;75570;-60
2024/02/09 04:36:47;;;;;;;31.40;14.30;;;;;;;-3.17;81.80;99856.58;105038;1260;66967;-59
2024/02/09 04:39:14;;;;;;;25.80;13.70;;;;;;;-3.14;81.90;99858.82;109101;1254;139679;-59
2024/02/09 04:41:43;;;;;;;30.00;14.30;;;;;;;-3.11;81.90;99859.48;109151;1254;60055;-59
2024/02/09 04:44:09;;;;;;;32.50;14.10;;;;;;;-3.08;81.98;99866.07;106303;1254;140409;-66
2024/02/09 04:46:38;;;;;;;27.00;13.50;;;;;;;-3.05;81.93;99872.23;105102;1265;75980;-63
2024/02/09 04:49:14;;;;;;;25.30;13.90;;;;;;;-3.05;81.98;99871.21;105007;1258;66983;-67
2024/02/09 04:51:44;;;;;;;29.30;14.00;;;;;;;-3.04;81.94;99871.11;104966;1260;139127;-58
2024/02/09 04:54:11;;;;;;;31.00;13.70;;;;;;;-3.03;81.93;99869.98;109182;1254;59850;-60
2024/02/09 04:56:38;;;;;;;26.30;13.30;;;;;;;-3.02;81.94;99870.71;108891;1254;138993;-60
2024/02/09 04:59:10;;;;;;;25.90;13.20;;;;;;;-3.00;82.00;99871.71;109194;1254;75935;-67
2024/02/09 05:01:38;;;;;;;30.60;14.70;;;;;;;-2.99;81.84;99871.09;107780;1258;139365;-59
2024/02/09 05:04:07;;;;;;;32.70;14.40;;;;;;;-2.98;81.85;99870.34;109202;1254;71897;-67
2024/02/09 05:06:34;;;;;;;28.50;14.50;;;;;;;-2.95;81.91;99871.53;109216;1254;59756;-67
2024/02/09 05:09:05;;;;;;;31.80;14.30;;;;;;;-2.93;81.85;99861.88;109102;1254;138873;-67
2024/02/09 05:11:35;;;;;;;30.10;13.70;;;;;;;-2.89;81.92;99864.84;109186;1254;74313;-67
2024/02/09 05:14:04;;;;;;;37.40;15.50;;;;;;;-2.87;81.84;99868.23;109061;1254;139047;-67
2024/02/09 05:16:32;;;;;;;29.00;15.00;;;;;;;-2.86;81.89;99875.19;109174;1254;71684;-67
2024/02/09 05:18:59;;;;;;;34.50;15.70;;;;;;;-2.85;81.90;99872.65;108873;1254;60201;-68
2024/02/09 05:21:26;;;;;;;30.10;16.20;;;;;;;-2.85;81.78;99867.14;109110;1254;138539;-67
2024/02/09 05:23:53;;;;;;;33.70;15.70;;;;;;;-2.86;81.72;99864.55;105711;1255;74541;-66
2024/02/09 05:26:20;;;;;;;34.80;15.70;;;;;;;-2.86;81.76;99864.86;105147;1255;138343;-67
2024/02/09 05:28:48;;;;;;;30.30;17.20;;;;;;;-2.87;81.72;99858.77;105172;1260;72995;-67
2024/02/09 05:31:15;;;;;;;31.30;16.70;;;;;;;-2.88;81.84;99854.97;105113;1260;62107;-60
2024/02/09 05:33:43;;;;;;;39.90;17.00;;;;;;;-2.87;81.86;99855.18;105003;1264;138750;-60
2024/02/09 05:36:23;;;;;;;33.80;16.00;;;;;;;-2.89;81.76;99857.15;108980;1254;75747;-59
2024/02/09 05:38:51;;;;;;;44.10;18.90;;;;;;;-2.93;81.58;99853.96;109076;1254;138780;-60
2024/02/09 05:41:18;;;;;;;69.70;27.40;;;;;;;-2.98;81.48;99854.49;109152;1254;71129;-60
2024/02/09 05:43:49;;;;;;;78.80;31.70;;;;;;;-3.02;81.45;99853.73;109034;1260;139811;-59
2024/02/09 05:46:16;;;;;;;76.60;31.10;;;;;;;-3.07;81.41;99853.27;109187;1254;59702;-60
2024/02/09 05:48:43;;;;;;;87.30;36.10;;;;;;;-3.10;81.28;99855.77;107330;1254;75524;-60
2024/02/09 05:51:18;;;;;;;106.20;44.00;;;;;;;-3.12;81.38;99863.89;109040;1259;138980;-60
2024/02/09 05:53:48;;;;;;;108.10;45.00;;;;;;;-3.12;81.37;99865.11;107879;1254;71923;-59
2024/02/09 05:56:15;;;;;;;101.30;42.30;;;;;;;-3.12;81.37;99863.58;109085;1254;139126;-60
2024/02/09 05:58:42;;;;;;;112.50;44.90;;;;;;;-3.13;81.36;99864.17;109000;1254;59795;-59
2024/02/09 06:01:09;;;;;;;110.00;43.80;;;;;;;-3.14;81.46;99862.55;108941;1254;75955;-59
2024/02/09 06:03:38;;;;;;;112.10;42.60;;;;;;;-3.12;81.39;99861.84;109051;1254;138702;-60
2024/02/09 06:06:05;;;;;;;119.90;43.80;;;;;;;-3.11;81.25;99856.90;109207;1256;72614;-59
2024/02/09 06:08:33;;;;;;;183.60;62.90;;;;;;;-3.12;81.22;99854.32;108821;1254;139267;-60
2024/02/09 06:11:00;;;;;;;241.20;79.20;;;;;;;-3.08;81.40;99861.73;109154;1254;59785;-59
2024/02/09 06:13:27;;;;;;;150.30;54.90;;;;;;;-3.06;81.32;99866.73;106135;1254;139176;-59
2024/02/09 06:15:57;;;;;;;83.80;32.40;;;;;;;-3.05;81.18;99866.74;104988;1256;67182;-60
2024/02/09 06:18:27;;;;;;;90.80;36.40;;;;;;;-3.07;81.22;99860.46;105005;1254;73678;-61
2024/02/09 06:20:55;;;;;;;121.00;44.10;;;;;;;-3.07;81.18;99856.84;106198;1254;139763;-60
2024/02/09 06:23:23;;;;;;;266.70;105.40;;;;;;;-3.07;81.17;99862.83;105011;1256;61948;-62
2024/02/09 06:25:50;;;;;;;182.80;68.10;;;;;;;-3.10;81.27;99866.28;108982;1254;138911;-59
2024/02/09 06:28:20;;;;;;;131.50;51.40;;;;;;;-3.11;81.32;99868.94;108982;1254;65064;-59
2024/02/09 06:30:47;;;;;;;144.60;52.70;;;;;;;-3.11;81.18;99872.16;109175;1254;70795;-59
2024/02/09 06:33:24;;;;;;;117.20;47.20;;;;;;;-3.09;81.41;99870.13;108355;1254;138788;-60
2024/02/09 06:35:50;;;;;;;157.70;58.50;;;;;;;-3.07;81.52;99866.13;105051;1254;62111;-60
2024/02/09 06:38:17;;;;;;;147.90;57.50;;;;;;;-3.02;81.57;99865.25;104854;1254;138908;-59
2024/02/09 06:40:45;;;;;;;141.30;58.30;;;;;;;-3.00;81.54;99868.66;104876;1261;66649;-60
2024/02/09 06:43:12;;;;;;;131.40;45.60;;;;;;;-2.97;81.69;99876.75;109185;1254;73133;-59
2024/02/09 06:45:39;;;;;;;128.90;47.20;;;;;;;-2.89;81.86;99876.37;108829;1254;139737;-60
2024/02/09 06:48:06;;;;;;;125.00;47.00;;;;;;;-2.80;81.87;99866.46;109191;1254;60193;-67
2024/02/09 06:50:34;;;;;;;112.60;44.90;;;;;;;-2.70;81.95;99864.20;105494;1254;139394;-67
2024/02/09 06:53:04;;;;;;;106.70;46.00;;;;;;;-2.59;81.92;99860.40;109153;1255;67983;-68
2024/02/09 06:55:32;;;;;;;94.90;44.20;;;;;;;-2.48;81.88;99860.90;109021;1254;140018;-68
2024/02/09 06:57:59;;;;;;;302.50;156.30;;;;;;;-2.36;81.93;99857.89;109215;1254;59785;-68
2024/02/09 07:00:26;;;;;;;105.40;48.70;;;;;;;-2.23;82.07;99860.93;109211;1254;60462;-68
2024/02/09 07:02:53;;;;;;;101.20;46.80;;;;;;;-2.09;82.08;99866.73;105868;1254;139290;-68
2024/02/09 07:05:22;;;;;;;97.80;46.50;;;;;;;-1.97;82.01;99863.31;109094;1254;66029;-68
2024/02/09 07:07:49;;;;;;;100.00;46.70;;;;;;;-1.86;81.94;99865.21;109069;1254;139558;-67
2024/02/09 07:10:17;;;;;;;99.60;44.60;;;;;;;-1.74;82.12;99862.63;105500;1255;62495;-68
2024/02/09 07:12:44;;;;;;;105.80;47.00;;;;;;;-1.61;82.14;99867.20;105050;1260;62162;-68
2024/02/09 07:15:14;;;;;;;95.60;46.70;;;;;;;-1.50;82.16;99866.14;104924;1259;139109;-60
2024/02/09 07:17:41;;;;;;;97.70;44.70;;;;;;;-1.39;82.19;99869.37;109106;1254;66155;-60
2024/02/09 07:20:10;;;;;;;108.50;47.50;;;;;;;-1.29;82.12;99870.24;107293;1254;139275;-60
2024/02/09 07:22:37;;;;;;;105.20;46.80;;;;;;;-1.22;82.17;99866.24;109122;1254;59899;-60
2024/02/09 07:25:04;;;;;;;111.10;49.60;;;;;;;-1.11;82.14;99865.46;108946;1254;60088;-61
2024/02/09 07:27:30;;;;;;;101.10;48.40;;;;;;;-1.02;82.01;99861.80;109120;1254;139494;-61
2024/02/09 07:29:59;;;;;;;89.60;44.70;;;;;;;-0.95;82.01;99862.55;109177;1254;67437;-60
2024/02/09 07:32:25;;;;;;;110.00;49.90;;;;;;;-0.90;81.99;99859.76;109084;1254;138423;-60
2024/02/09 07:34:52;;;;;;;93.40;48.60;;;;;;;-0.84;82.01;99859.38;108205;1257;59796;-60
2024/02/09 07:37:22;;;;;;;88.20;42.70;;;;;;;-0.81;81.74;99863.20;104752;1254;138401;-61
2024/02/09 07:39:49;;;;;;;88.60;42.00;;;;;;;-0.78;81.54;99873.65;104970;1255;76377;-59
2024/02/09 07:42:17;;;;;;;97.20;41.40;;;;;;;-0.77;81.65;99879.04;105042;1254;66809;-64
2024/02/09 07:44:44;;;;;;;82.90;39.20;;;;;;;-0.78;81.57;99875.71;104961;1257;138159;-60
2024/02/09 07:47:11;;;;;;;80.90;41.40;;;;;;;-0.76;81.65;99874.12;105165;1259;62075;-68
2024/02/09 07:49:37;;;;;;;93.50;43.20;;;;;;;-0.73;81.90;99865.54;104696;1260;139142;-71
2024/02/09 07:52:05;;;;;;;92.20;42.50;;;;;;;-0.66;82.05;99858.84;105046;1254;74757;-67
2024/02/09 07:54:31;;;;;;;88.80;40.20;;;;;;;-0.62;82.08;99858.20;109035;1254;66880;-69
2024/02/09 07:56:58;;;;;;;77.90;39.70;;;;;;;-0.59;82.08;99857.69;109048;1254;138941;-68
2024/02/09 07:59:25;;;;;;;85.40;41.50;;;;;;;-0.55;81.96;99859.41;109165;1254;60153;-67
2024/02/09 08:01:52;;;;;;;90.80;43.60;;;;;;;-0.49;82.06;99855.80;106516;1254;139253;-68
2024/02/09 08:04:19;;;;;;;98.50;45.60;;;;;;;-0.41;82.15;99854.50;104941;1254;75925;-68
2024/02/09 08:06:47;;;;;;;88.10;43.90;;;;;;;-0.38;82.10;99855.36;106996;1260;68340;-68
2024/02/09 08:09:14;;;;;;;83.40;41.60;;;;;;;-0.38;81.74;99858.44;105035;1254;139453;-67
2024/02/09 08:11:42;;;;;;;91.60;42.30;;;;;;;-0.40;81.96;99858.72;104930;1259;62203;-66
2024/02/09 08:14:08;;;;;;;81.50;40.80;;;;;;;-0.35;81.84;99866.56;104909;1254;138949;-67
2024/02/09 08:16:35;;;;;;;76.90;37.90;;;;;;;-0.31;81.87;99868.33;104975;1254;76512;-67
2024/02/09 08:19:02;;;;;;;75.70;37.70;;;;;;;-0.30;81.83;99867.02;104920;1260;67244;-67
2024/02/09 08:21:29;;;;;;;75.30;38.20;;;;;;;-0.27;82.08;99869.23;104862;1258;139124;-68
2024/02/09 08:23:56;;;;;;;69.40;38.30;;;;;;;-0.22;81.94;99869.54;105058;1254;62196;-67
2024/02/09 08:26:22;;;;;;;68.30;37.10;;;;;;;-0.17;81.79;99864.92;104928;1254;138468;-68
2024/02/09 08:28:49;;;;;;;82.90;38.00;;;;;;;-0.12;81.90;99868.14;105112;1254;76613;-67
2024/02/09 08:31:17;;;;;;;72.50;39.60;;;;;;;-0.07;81.87;99869.27;105024;1256;67309;-68
2024/02/09 08:33:46;;;;;;;81.70;40.40;;;;;;;-0.04;81.77;99865.98;105105;1254;72823;-67
2024/02/09 08:36:16;;;;;;;69.60;38.80;;;;;;;-0.01;81.80;99871.81;109135;1254;60501;-67
2024/02/09 08:38:44;;;;;;;65.00;37.70;;;;;;;0.04;81.85;99874.98;109050;1254;139102;-67
2024/02/09 08:41:11;;;;;;;62.50;33.30;;;;;;;0.10;81.65;99874.45;108977;1257;76489;-68
2024/02/09 08:43:38;;;;;;;59.40;31.60;;;;;;;0.13;81.48;99874.46;109050;1254;139086;-68
2024/02/09 08:46:04;;;;;;;54.90;30.20;;;;;;;0.19;81.39;99873.38;109184;1254;72793;-67
2024/02/09 08:48:31;;;;;;;56.00;29.20;;;;;;;0.25;81.30;99872.15;109158;1254;60134;-68
2024/02/09 08:50:58;;;;;;;52.20;28.40;;;;;;;0.28;81.16;99868.31;108879;1254;139552;-67
2024/02/09 08:53:25;;;;;;;46.60;26.50;;;;;;;0.34;81.04;99866.04;107247;1254;74630;-67
2024/02/09 08:55:51;;;;;;;51.60;28.50;;;;;;;0.43;81.12;99867.52;104955;1254;139272;-59
2024/02/09 08:58:20;;;;;;;52.40;28.70;;;;;;;0.51;81.18;99874.64;105052;1254;73687;-59
2024/02/09 09:00:47;;;;;;;45.50;26.50;;;;;;;0.59;81.12;99870.43;105198;1254;62131;-68
2024/02/09 09:03:14;;;;;;;49.10;28.00;;;;;;;0.62;80.82;99865.39;104940;1259;138748;-60
2024/02/09 09:05:42;;;;;;;50.30;29.90;;;;;;;0.54;80.51;99864.30;104841;1254;75848;-59
2024/02/09 09:08:09;;;;;;;52.70;28.80;;;;;;;0.56;80.62;99861.96;106208;1255;138736;-60
2024/02/09 09:10:38;;;;;;;45.90;27.10;;;;;;;0.61;80.62;99860.13;109116;1254;73861;-60
2024/02/09 09:13:10;;;;;;;48.90;27.40;;;;;;;0.63;80.61;99856.46;109174;1256;59884;-60
2024/02/09 09:15:43;;;;;;;46.50;27.20;;;;;;;0.63;80.56;99856.45;109143;1254;138608;-60
2024/02/09 09:18:10;;;;;;;52.00;28.10;;;;;;;0.62;80.51;99857.06;108976;1254;73220;-60
2024/02/09 09:20:37;;;;;;;55.60;30.30;;;;;;;0.59;80.06;99856.09;109075;1254;139430;-68
2024/02/09 09:23:04;;;;;;;55.90;32.40;;;;;;;0.52;80.19;99857.63;109155;1254;71445;-67
2024/02/09 09:25:31;;;;;;;62.70;32.60;;;;;;;0.52;80.28;99860.41;108888;1254;201166;-67
2024/02/09 09:27:58;;;;;;;57.30;31.00;;;;;;;0.61;80.45;99861.52;109219;1254;61766;-68
2024/02/09 09:30:25;;;;;;;58.10;30.70;;;;;;;0.69;80.66;99865.08;109219;1254;75449;-67
2024/02/09 09:32:52;;;;;;;59.50;29.90;;;;;;;0.76;80.42;99863.84;109077;1254;138982;-67
2024/02/09 09:35:19;;;;;;;54.30;29.80;;;;;;;0.80;80.47;99864.55;109183;1254;72660;-68
2024/02/09 09:37:46;;;;;;;55.20;29.80;;;;;;;0.88;80.48;99872.52;108894;1254;139587;-67
2024/02/09 09:40:13;;;;;;;53.00;28.40;;;;;;;0.93;80.21;99865.74;109180;1254;61226;-67
2024/02/09 09:42:42;;;;;;;53.80;30.10;;;;;;;1.02;80.32;99862.67;108993;1254;74733;-68
2024/02/09 09:45:09;;;;;;;52.40;28.60;;;;;;;1.08;80.27;99855.74;109069;1254;138412;-67
2024/02/09 09:47:40;;;;;;;58.50;29.70;;;;;;;1.15;80.37;99849.36;105614;1256;71759;-67
2024/02/09 09:50:10;;;;;;;60.20;31.80;;;;;;;1.24;80.30;99844.56;109012;1254;139061;-67
2024/02/09 09:52:41;;;;;;;55.10;30.20;;;;;;;1.29;80.19;99835.30;109240;1254;59845;-67
2024/02/09 09:55:10;;;;;;;57.40;32.80;;;;;;;1.25;79.81;99831.80;108999;1254;75337;-68
2024/02/09 09:57:38;;;;;;;58.80;32.70;;;;;;;1.29;80.07;99823.73;109120;1254;138254;-67
2024/02/09 10:00:06;;;;;;;60.50;31.20;;;;;;;1.36;79.89;99816.62;108962;1254;73706;-67
2024/02/09 10:02:34;;;;;;;63.60;31.40;;;;;;;1.41;80.09;99808.73;109083;1254;139144;-66
2024/02/09 10:05:01;;;;;;;61.40;33.90;;;;;;;1.47;80.04;99800.55;109211;1254;61590;-66
2024/02/09 10:07:28;;;;;;;54.60;30.90;;;;;;;1.55;79.92;99797.96;108864;1254;139405;-66
2024/02/09 10:09:55;;;;;;;56.10;29.50;;;;;;;1.62;79.89;99793.10;108948;1259;66279;-66
2024/02/09 10:12:22;;;;;;;65.80;32.40;;;;;;;1.66;79.82;99791.89;108934;1255;73762;-66
2024/02/09 10:14:49;;;;;;;64.20;33.70;;;;;;;1.69;79.60;99789.07;107108;1260;139407;-67
2024/02/09 10:17:16;;;;;;;64.10;31.00;;;;;;;1.68;79.66;99791.48;105112;1259;62559;-67
2024/02/09 10:19:43;;;;;;;58.80;32.00;;;;;;;1.71;79.50;99787.45;104667;1260;139002;-67
2024/02/09 10:22:10;;;;;;;56.10;31.10;;;;;;;1.74;79.52;99787.93;104982;1259;65827;-68
2024/02/09 10:24:40;;;;;;;59.70;32.50;;;;;;;1.78;79.50;99791.36;104938;1256;82453;-68
2024/02/09 10:27:08;;;;;;;73.10;38.40;;;;;;;1.73;79.11;99797.37;104895;1257;138724;-68
2024/02/09 10:29:34;;;;;;;74.80;41.80;;;;;;;1.67;79.11;99801.76;105095;1256;62092;-68
2024/02/09 10:32:01;;;;;;;74.60;42.90;;;;;;;1.66;79.29;99801.25;104871;1257;138358;-59
2024/02/09 10:34:28;;;;;;;78.80;46.10;;;;;;;1.65;79.26;99806.87;105020;1259;66923;-59
2024/02/09 10:36:54;;;;;;;115.90;57.60;;;;;;;1.59;79.09;99804.89;104826;1256;72276;-59
2024/02/09 10:39:21;;;;;;;88.00;44.80;;;;;;;1.56;79.14;99800.42;104820;1257;140472;-59
2024/02/09 10:41:49;;;;;;;80.70;41.80;;;;;;;1.53;79.30;99796.86;105032;1256;62030;-60
2024/02/09 10:44:16;;;;;;;87.20;42.90;;;;;;;1.51;79.36;99795.88;104913;1256;139158;-67
2024/02/09 10:46:44;;;;;;;72.70;38.80;;;;;;;1.57;79.73;99787.86;104975;1261;66564;-67
2024/02/09 10:49:11;;;;;;;78.80;41.30;;;;;;;1.62;79.52;99784.44;109194;1255;72805;-59
2024/02/09 10:51:39;;;;;;;62.60;34.60;;;;;;;1.61;79.31;99780.58;109007;1255;138834;-60
2024/02/09 10:54:12;;;;;;;60.60;36.10;;;;;;;1.59;79.24;99779.82;109106;1256;60166;-68
2024/02/09 10:56:39;;;;;;;59.80;34.00;;;;;;;1.60;79.27;99781.05;108900;1256;138919;-59
2024/02/09 10:59:07;;;;;;;67.30;35.50;;;;;;;1.66;79.29;99772.52;108960;1256;66025;-67
2024/02/09 11:01:36;;;;;;;81.70;45.50;;;;;;;1.70;79.27;99769.06;109036;1255;138713;-66
2024/02/09 11:04:03;;;;;;;74.80;39.90;;;;;;;1.72;79.36;99768.48;109105;1255;59883;-61
2024/02/09 11:06:30;;;;;;;65.10;36.60;;;;;;;1.76;79.23;99772.95;109008;1256;60008;-60
2024/02/09 11:08:57;;;;;;;65.80;35.50;;;;;;;1.74;78.91;99775.63;108855;1256;139322;-67
2024/02/09 11:11:32;;;;;;;72.00;36.70;;;;;;;1.79;79.16;99774.27;108899;1256;65387;-67
2024/02/09 11:14:09;;;;;;;64.80;34.10;;;;;;;1.85;79.20;99779.23;108843;1256;139303;-60
2024/02/09 11:16:56;;;;;;;65.50;33.90;;;;;;;1.86;79.19;99778.20;109133;1255;59852;-59
2024/02/09 11:19:22;;;;;;;63.00;32.70;;;;;;;1.83;78.84;99772.74;108848;1255;139286;-59
2024/02/09 11:21:57;;;;;;;62.60;35.80;;;;;;;1.83;78.81;99771.72;109104;1256;75662;-59
2024/02/09 11:24:25;;;;;;;66.40;35.90;;;;;;;1.86;78.94;99769.92;109086;1255;67512;-59
2024/02/09 11:26:52;;;;;;;60.60;35.30;;;;;;;1.89;79.01;99765.73;108858;1255;138937;-60
2024/02/09 11:29:19;;;;;;;61.20;34.40;;;;;;;1.82;78.55;99763.70;108928;1256;59815;-60
2024/02/09 11:31:50;;;;;;;63.50;36.20;;;;;;;1.69;78.38;99759.69;109029;1255;138561;-60
2024/02/09 11:34:18;;;;;;;72.20;36.20;;;;;;;1.65;78.58;99762.27;108316;1259;74482;-59
2024/02/09 11:36:45;;;;;;;63.60;34.80;;;;;;;1.61;78.76;99760.17;108989;1259;66334;-60
2024/02/09 11:39:12;;;;;;;57.50;32.60;;;;;;;1.58;78.88;99755.40;108890;1256;138770;-59
2024/02/09 11:41:39;;;;;;;57.40;35.10;;;;;;;1.59;78.83;99759.04;106566;1256;62182;-59
2024/02/09 11:44:09;;;;;;;55.60;33.10;;;;;;;1.58;79.04;99758.52;104771;1256;139397;-59
2024/02/09 11:46:37;;;;;;;64.20;33.10;;;;;;;1.60;79.04;99755.10;108925;1256;75602;-59
2024/02/09 11:49:06;;;;;;;73.90;36.70;;;;;;;1.61;78.97;99749.47;106574;1256;65989;-60
2024/02/09 11:51:34;;;;;;;74.00;36.80;;;;;;;1.66;79.03;99744.30;104878;1255;139293;-61
2024/02/09 11:54:03;;;;;;;66.50;35.70;;;;;;;1.70;79.26;99743.27;109142;1256;59758;-59
2024/02/09 11:56:31;;;;;;;62.80;34.60;;;;;;;1.77;79.18;99739.08;107888;1256;139241;-59
2024/02/09 11:58:57;;;;;;;63.10;34.90;;;;;;;1.83;79.37;99734.84;104857;1257;76122;-59
2024/02/09 12:01:24;;;;;;;65.30;35.40;;;;;;;1.88;79.33;99728.51;104972;1256;138621;-59
2024/02/09 12:03:52;;;;;;;72.90;36.70;;;;;;;1.87;79.16;99720.52;104978;1257;73693;-59
2024/02/09 12:06:21;;;;;;;67.40;34.70;;;;;;;1.84;79.01;99721.24;104953;1259;62283;-58
2024/02/09 12:08:50;;;;;;;60.80;34.20;;;;;;;1.84;79.18;99719.34;104694;1256;139010;-59
2024/02/09 12:11:20;;;;;;;55.70;33.40;;;;;;;1.86;79.16;99718.70;109033;1256;76066;-60
2024/02/09 12:13:47;;;;;;;65.20;35.00;;;;;;;1.86;79.01;99714.23;107616;1254;138745;-60
2024/02/09 12:16:17;;;;;;;56.20;31.70;;;;;;;1.81;78.94;99712.48;109048;1256;73782;-60
2024/02/09 12:18:44;;;;;;;58.20;33.00;;;;;;;1.75;78.85;99711.01;108975;1254;59962;-60
2024/02/09 12:21:11;;;;;;;60.10;33.90;;;;;;;1.70;78.81;99710.41;109067;1254;138403;-60
2024/02/09 12:23:38;;;;;;;63.70;36.10;;;;;;;1.68;78.88;99707.23;109177;1254;74613;-60
2024/02/09 12:26:08;;;;;;;65.80;36.50;;;;;;;1.65;78.97;99701.05;109104;1254;138725;-60
2024/02/09 12:28:35;;;;;;;64.90;36.30;;;;;;;1.68;79.23;99699.63;108998;1254;73872;-60
2024/02/09 12:31:06;;;;;;;59.00;34.50;;;;;;;1.71;79.09;99697.01;109171;1256;60266;-60
2024/02/09 12:33:36;;;;;;;64.30;35.80;;;;;;;1.71;78.99;99695.44;108078;1254;139347;-59
2024/02/09 12:36:08;;;;;;;65.10;36.30;;;;;;;1.72;79.09;99691.52;105064;1257;75404;-58
2024/02/09 12:38:41;;;;;;;67.60;39.10;;;;;;;1.73;78.98;99687.57;109085;1254;139969;-59
2024/02/09 12:41:08;;;;;;;;;;;;;;;1.77;79.06;99685.99;105960;1256;71384;-59
2024/02/09 12:43:35;;;;;;;64.20;35.50;;;;;;;1.82;79.24;99682.75;104864;1259;124971;-60
2024/02/09 12:46:04;;;;;;;68.00;37.50;;;;;;;1.81;79.08;99680.63;105068;1257;62165;-60
2024/02/09 12:48:31;;;;;;;71.90;39.30;;;;;;;1.78;79.07;99674.08;109161;1254;74461;-61
2024/02/09 12:50:58;;;;;;;71.40;38.90;;;;;;;1.72;78.94;99672.14;108598;1258;138496;-60
2024/02/09 12:53:25;;;;;;;64.60;36.80;;;;;;;1.72;79.15;99672.64;104802;1261;73674;-62
2024/02/09 12:55:54;;;;;;;65.40;39.20;;;;;;;1.72;79.16;99671.64;104921;1257;139548;-60
2024/02/09 12:58:21;;;;;;;70.60;38.70;;;;;;;1.74;79.27;99669.62;105026;1254;62224;-60
2024/02/09 13:00:49;;;;;;;68.10;37.60;;;;;;;1.77;79.31;99666.28;107459;1254;75211;-61
2024/02/09 13:03:15;;;;;;;71.50;38.30;;;;;;;1.79;79.32;99666.88;108911;1254;138683;-59